Terminal Aerodrome Forecast
Issued by NWS

Home | Current Version | Previous Version | Text Only | Print | Product List | Glossary On
Versions: 1 2 3 4 5 6 7 8 9 10 11 12 13 14 15 16 17 18 19 20 21 22 23 24 25 26 27 28 29 30 31 32 33 34 35 36 37 38 39
000
FTUS46 KOTX 202328
TAFCOE
TAF
KCOE 202328Z 2100/2124 26009KT P6SM SCT060 SCT150 BKN200
     FM210300 22007KT P6SM SCT070 BKN090 OVC120
     FM210700 22007KT P6SM -RA SCT020 OVC040
     FM211000 23005KT 6SM +RA BR BKN020 OVC025
     FM211500 23006KT P6SM VCSH BKN018 OVC025
      AMD LTD TO CLD AND VIS=

USA.gov is the U.S. government's official web portal to all federal, state and local government web resources and services.